createdAt,value
2023-05-08T00:01:33.394Z,87.84
2023-05-08T00:06:36.347Z,89.37
2023-05-08T00:11:39.358Z,89.30
2023-05-08T00:16:43.781Z,89.40
2023-05-08T00:21:46.760Z,88.64
2023-05-08T00:26:49.762Z,89.96
2023-05-08T00:31:54.070Z,90.04
2023-05-08T00:36:57.591Z,88.88
2023-05-08T00:42:00.615Z,89.42
2023-05-08T00:47:04.944Z,89.23
2023-05-08T00:52:09.020Z,89.52
2023-05-08T00:57:11.969Z,90.69
2023-05-08T01:02:16.929Z,90.58
2023-05-08T01:07:20.100Z,91.49
2023-05-08T01:12:37.938Z,90.67
2023-05-08T01:17:51.591Z,90.47
2023-05-08T01:23:25.973Z,91.80
2023-05-08T01:28:55.959Z,91.42
2023-05-08T01:34:07.265Z,91.00
2023-05-08T01:39:18.590Z,90.87
2023-05-08T01:44:29.403Z,91.24
2023-05-08T01:49:39.807Z,91.47
2023-05-08T01:54:51.480Z,91.39
2023-05-08T01:59:57.228Z,91.12
2023-05-08T02:05:04.711Z,91.45
2023-05-08T02:10:11.415Z,91.25
2023-05-08T02:15:17.296Z,91.44
2023-05-08T02:20:23.116Z,91.95
2023-05-08T02:25:27.301Z,91.08
2023-05-08T02:30:30.739Z,91.64
2023-05-08T02:35:35.554Z,91.80
2023-05-08T02:40:42.768Z,91.47
2023-05-08T02:45:50.892Z,91.70
2023-05-08T02:51:00.477Z,91.56
2023-05-08T02:56:11.191Z,91.37
2023-05-08T03:01:22.845Z,92.35
2023-05-08T03:06:28.174Z,91.72
2023-05-08T03:11:38.746Z,91.38
2023-05-08T03:16:45.917Z,92.24
2023-05-08T03:21:53.002Z,91.65
2023-05-08T03:26:57.864Z,92.24
2023-05-08T03:32:03.310Z,92.00
2023-05-08T03:37:08.414Z,92.07
2023-05-08T03:42:21.081Z,91.77
2023-05-08T03:47:26.142Z,91.23
2023-05-08T03:52:31.400Z,91.12
2023-05-08T03:57:41.675Z,90.74
2023-05-08T04:02:51.814Z,89.74
2023-05-08T04:08:04.430Z,89.00
2023-05-08T04:13:13.319Z,89.25
2023-05-08T04:18:26.606Z,88.84
2023-05-08T04:23:31.277Z,85.10
2023-05-08T04:28:35.478Z,77.31
2023-05-08T04:33:39.157Z,72.83
2023-05-08T04:38:43.735Z,70.81
2023-05-08T04:43:47.785Z,68.76
2023-05-08T04:48:50.973Z,69.51
2023-05-08T04:53:55.378Z,68.62
2023-05-08T04:58:59.089Z,66.98
2023-05-08T05:04:02.210Z,64.71
2023-05-08T05:09:06.669Z,62.82
2023-05-08T05:14:10.152Z,62.41
2023-05-08T05:19:13.226Z,63.66
2023-05-08T05:24:18.002Z,61.25
2023-05-08T05:29:21.100Z,62.61
2023-05-08T05:34:24.128Z,64.08
2023-05-08T05:39:28.515Z,63.77
2023-05-08T05:44:31.552Z,62.25
2023-05-08T05:49:35.074Z,60.82
2023-05-08T05:54:41.442Z,62.96
2023-05-08T05:59:45.125Z,59.16
2023-05-08T06:04:50.039Z,63.80
2023-05-08T06:09:54.494Z,66.98
2023-05-08T06:14:57.908Z,66.33
2023-05-08T06:20:01.050Z,67.76
2023-05-08T06:25:07.125Z,68.36
2023-05-08T06:30:10.831Z,67.04
2023-05-08T06:35:18.383Z,66.46
2023-05-08T06:40:24.043Z,66.02
2023-05-08T06:45:27.009Z,66.06
2023-05-08T06:50:30.006Z,62.31
2023-05-08T06:55:34.313Z,63.28
2023-05-08T07:00:37.546Z,61.32
2023-05-08T07:05:40.392Z,62.02
2023-05-08T07:10:44.649Z,55.58
2023-05-08T07:15:47.605Z,56.64
2023-05-08T07:20:50.593Z,53.40
2023-05-08T07:25:55.403Z,53.09
2023-05-08T07:30:58.276Z,51.33
2023-05-08T07:36:01.253Z,53.30
2023-05-08T07:41:05.731Z,53.01
2023-05-08T07:46:08.622Z,55.20
2023-05-08T07:51:12.240Z,51.46
2023-05-08T07:56:16.533Z,53.93
2023-05-08T08:01:19.465Z,50.79
2023-05-08T08:06:22.404Z,51.49
2023-05-08T08:11:26.687Z,46.88
2023-05-08T08:16:29.681Z,52.23
2023-05-08T08:21:32.829Z,49.31
2023-05-08T08:26:37.124Z,48.38
2023-05-08T08:31:40.213Z,46.82
2023-05-08T08:36:43.327Z,48.42
2023-05-08T08:41:47.743Z,47.91
2023-05-08T08:46:52.856Z,47.74
2023-05-08T08:52:01.215Z,45.13
2023-05-08T08:57:08.270Z,44.42
2023-05-08T09:02:17.407Z,43.17
2023-05-08T09:07:20.906Z,45.72
2023-05-08T09:12:25.279Z,45.21
2023-05-08T09:17:28.235Z,42.68
2023-05-08T09:22:31.625Z,44.69
2023-05-08T09:27:36.780Z,42.87
2023-05-08T09:32:41.780Z,42.47
2023-05-08T09:37:44.881Z,41.31
2023-05-08T09:42:50.463Z,39.42
2023-05-08T09:47:53.451Z,37.80
2023-05-08T09:52:56.611Z,36.84
2023-05-08T09:58:01.228Z,36.53
2023-05-08T10:03:04.876Z,35.87
2023-05-08T10:08:21.498Z,36.34
2023-05-08T10:13:26.209Z,33.16
2023-05-08T10:18:31.801Z,32.29
2023-05-08T10:23:35.405Z,31.91
2023-05-08T10:28:44.254Z,31.80
2023-05-08T10:33:51.627Z,30.74
2023-05-08T10:38:55.225Z,30.71
2023-05-08T10:44:03.332Z,31.20
2023-05-08T10:49:15.983Z,30.77
2023-05-08T10:54:27.997Z,32.41
2023-05-08T10:59:36.388Z,32.81
2023-05-08T11:04:39.495Z,30.35
2023-05-08T11:09:49.383Z,28.73
2023-05-08T11:15:01.979Z,31.37
2023-05-08T11:20:07.289Z,30.40
2023-05-08T11:25:11.928Z,28.48
2023-05-08T11:30:24.492Z,28.11
2023-05-08T11:35:54.605Z,27.20
2023-05-08T11:41:05.708Z,27.21
2023-05-08T11:46:16.587Z,28.01
2023-05-08T11:51:20.433Z,27.87
2023-05-08T11:56:23.374Z,26.10
2023-05-08T12:01:27.655Z,25.71
2023-05-08T12:06:31.900Z,26.22
2023-05-08T12:11:34.798Z,24.77
2023-05-08T12:16:39.715Z,23.55
2023-05-08T12:21:48.090Z,24.08
2023-05-08T12:26:51.300Z,24.47
2023-05-08T12:31:56.730Z,24.30
2023-05-08T12:37:04.258Z,25.36
2023-05-08T12:42:07.284Z,25.12
2023-05-08T12:47:12.318Z,24.02
2023-05-08T12:52:15.263Z,25.17
2023-05-08T12:57:19.627Z,23.93
2023-05-08T13:02:26.455Z,27.00
2023-05-08T13:07:33.360Z,25.12
2023-05-08T13:12:36.342Z,26.18
2023-05-08T13:17:40.690Z,24.46
2023-05-08T13:22:43.654Z,23.56
2023-05-08T13:27:46.626Z,24.52
2023-05-08T13:32:52.574Z,25.32
2023-05-08T13:37:55.820Z,25.72
2023-05-08T13:42:58.730Z,26.32
2023-05-08T13:48:03.030Z,26.40
2023-05-08T13:53:06.174Z,25.46
2023-05-08T13:58:09.148Z,25.41
2023-05-08T14:03:13.430Z,24.93
2023-05-08T14:08:16.383Z,22.96
2023-05-08T14:13:19.392Z,21.72
2023-05-08T14:18:23.669Z,22.61
2023-05-08T14:23:26.758Z,24.49
2023-05-08T14:28:29.691Z,23.36
2023-05-08T14:33:33.982Z,23.40
2023-05-08T14:38:36.924Z,23.62
2023-05-08T14:43:39.812Z,23.16
2023-05-08T14:48:44.074Z,30.33
2023-05-08T14:53:47.041Z,33.14
2023-05-08T14:58:50.004Z,32.80
2023-05-08T15:03:54.450Z,36.80
2023-05-08T15:08:57.341Z,36.48
2023-05-08T15:14:01.799Z,37.79
2023-05-08T15:19:06.129Z,37.37
2023-05-08T15:24:09.930Z,39.01
2023-05-08T15:29:12.880Z,39.34
2023-05-08T15:34:17.170Z,38.60
2023-05-08T15:39:20.087Z,39.10
2023-05-08T15:44:24.756Z,39.77
2023-05-08T15:49:29.190Z,40.11
2023-05-08T15:54:32.103Z,40.89
2023-05-08T15:59:37.546Z,40.38
2023-05-08T16:04:41.795Z,40.60
2023-05-08T16:09:44.730Z,41.29
2023-05-08T16:14:47.727Z,41.17
2023-05-08T16:19:52.003Z,42.83
2023-05-08T16:24:55.024Z,42.58
2023-05-08T16:29:57.955Z,43.51
2023-05-08T16:35:02.502Z,42.85
2023-05-08T16:40:06.720Z,43.28
2023-05-08T16:45:11.898Z,43.90
2023-05-08T16:50:16.214Z,44.10
2023-05-08T16:55:19.244Z,44.89
2023-05-08T17:00:22.816Z,44.85
2023-05-08T17:05:27.131Z,45.17
2023-05-08T17:10:30.265Z,46.13
2023-05-08T17:15:33.190Z,46.30
2023-05-08T17:20:40.955Z,47.13
2023-05-08T17:25:44.070Z,47.04
2023-05-08T17:30:48.219Z,47.57
2023-05-08T17:35:52.478Z,48.06
2023-05-08T17:40:56.402Z,47.54
2023-05-08T17:45:59.362Z,47.61
2023-05-08T17:51:03.989Z,48.41
2023-05-08T17:56:07.751Z,48.74
2023-05-08T18:01:10.726Z,49.70
2023-05-08T18:06:17.065Z,49.50
2023-05-08T18:11:21.436Z,49.80
2023-05-08T18:16:24.482Z,50.35
2023-05-08T18:21:28.946Z,50.86
2023-05-08T18:26:32.248Z,50.93
2023-05-08T18:31:35.328Z,52.50
2023-05-08T18:36:39.723Z,53.36
2023-05-08T18:41:42.623Z,53.87
2023-05-08T18:46:45.625Z,55.09
2023-05-08T18:51:49.936Z,56.25
2023-05-08T18:56:52.848Z,56.52
2023-05-08T19:01:55.914Z,56.83
2023-05-08T19:07:00.817Z,58.09
2023-05-08T19:12:04.096Z,58.29
2023-05-08T19:17:07.558Z,58.65
2023-05-08T19:22:11.859Z,59.49
2023-05-08T19:27:14.782Z,61.27
2023-05-08T19:32:17.713Z,60.58
2023-05-08T19:37:21.944Z,61.64
2023-05-08T19:42:24.849Z,61.55
2023-05-08T19:47:27.850Z,61.56
2023-05-08T19:52:32.099Z,62.21
2023-05-08T19:57:34.952Z,62.45
2023-05-08T20:02:38.044Z,62.50
2023-05-08T20:07:42.444Z,63.64
2023-05-08T20:12:45.409Z,64.13
2023-05-08T20:17:48.378Z,64.11
2023-05-08T20:22:52.632Z,65.00
2023-05-08T20:27:55.667Z,65.29
2023-05-08T20:33:04.514Z,64.82
2023-05-08T20:38:09.240Z,65.39
2023-05-08T20:43:12.410Z,65.68
2023-05-08T20:48:15.368Z,66.44
2023-05-08T20:53:19.623Z,66.80
2023-05-08T20:58:22.546Z,67.50
2023-05-08T21:03:25.545Z,67.31
2023-05-08T21:08:29.828Z,68.88
2023-05-08T21:13:32.950Z,69.18
2023-05-08T21:18:36.482Z,69.91
2023-05-08T21:23:40.930Z,69.78
2023-05-08T21:28:43.850Z,70.99
2023-05-08T21:33:46.825Z,72.58
2023-05-08T21:38:52.037Z,72.66
2023-05-08T21:43:54.914Z,72.77
2023-05-08T21:48:57.815Z,73.23
2023-05-08T21:54:02.479Z,72.90
2023-05-08T21:59:05.414Z,71.56
2023-05-08T22:04:08.330Z,72.59
2023-05-08T22:09:12.623Z,72.83
2023-05-08T22:14:16.100Z,73.09
2023-05-08T22:19:19.030Z,73.53
2023-05-08T22:24:23.459Z,73.72
2023-05-08T22:29:26.466Z,73.63
2023-05-08T22:34:29.361Z,73.58
2023-05-08T22:39:33.799Z,74.27
2023-05-08T22:44:37.740Z,75.48
2023-05-08T22:49:41.972Z,75.41
2023-05-08T22:54:46.295Z,75.86
2023-05-08T22:59:49.144Z,75.61
2023-05-08T23:04:52.061Z,72.98
2023-05-08T23:09:56.407Z,72.39
2023-05-08T23:14:59.478Z,71.61
2023-05-08T23:20:02.519Z,72.69
2023-05-08T23:25:10.328Z,72.39
2023-05-08T23:30:16.693Z,72.60
2023-05-08T23:35:19.832Z,73.42
2023-05-08T23:40:24.380Z,74.38
2023-05-08T23:45:27.265Z,73.91
2023-05-08T23:50:30.193Z,75.30
2023-05-08T23:55:36.168Z,76.18
